createdAt,value
2023-01-23T00:00:02.108Z,3.16
2023-01-23T00:00:15.800Z,3.17
2023-01-23T00:00:28.212Z,3.18
2023-01-23T00:00:43.020Z,3.18
2023-01-23T00:00:59.231Z,3.18
2023-01-23T00:01:15.485Z,3.12
2023-01-23T00:01:33.289Z,3.14
2023-01-23T00:01:47.805Z,3.17
2023-01-23T00:02:00.115Z,3.19
2023-01-23T00:02:12.257Z,3.21
2023-01-23T00:02:24.274Z,3.23
2023-01-23T00:02:36.479Z,3.21
2023-01-23T00:02:48.470Z,3.19
2023-01-23T00:03:00.592Z,3.17
2023-01-23T00:03:12.547Z,3.19
2023-01-23T00:03:24.788Z,3.18
2023-01-23T00:03:36.744Z,3.15
2023-01-23T00:03:48.660Z,3.19
2023-01-23T00:04:00.861Z,3.24
2023-01-23T00:04:14.200Z,3.26
2023-01-23T00:04:26.282Z,3.25
2023-01-23T00:04:38.286Z,3.26
2023-01-23T00:04:50.216Z,3.24
2023-01-23T00:05:02.328Z,3.24
2023-01-23T00:05:14.336Z,3.16
2023-01-23T00:05:26.341Z,3.12
2023-01-23T00:05:38.311Z,3.11
2023-01-23T00:06:00.697Z,3.07
2023-01-23T00:06:15.250Z,3.03
2023-01-23T00:06:27.432Z,3.06
2023-01-23T00:06:40.808Z,3.03
2023-01-23T00:06:52.792Z,2.92
2023-01-23T00:07:04.743Z,2.94
2023-01-23T00:07:16.696Z,2.96
2023-01-23T00:07:28.637Z,2.97
2023-01-23T00:07:40.555Z,2.95
2023-01-23T00:07:52.622Z,2.92
2023-01-23T00:08:04.781Z,2.93
2023-01-23T00:08:16.693Z,2.99
2023-01-23T00:08:29.185Z,3.04
2023-01-23T00:08:43.020Z,3.02
2023-01-23T00:08:59.008Z,3.04
2023-01-23T00:09:10.978Z,3.10
2023-01-23T00:09:22.868Z,3.12
2023-01-23T00:09:34.925Z,3.15
2023-01-23T00:09:46.830Z,3.15
2023-01-23T00:09:58.724Z,3.19
2023-01-23T00:10:11.341Z,3.23
2023-01-23T00:10:23.271Z,3.25
2023-01-23T00:10:35.199Z,3.26
2023-01-23T00:10:47.135Z,3.27
2023-01-23T00:10:59.151Z,3.29
2023-01-23T00:11:13.998Z,3.30
2023-01-23T00:11:28.439Z,3.30
2023-01-23T00:11:40.442Z,3.30
2023-01-23T00:11:52.346Z,3.30
2023-01-23T00:12:05.582Z,3.30
2023-01-23T00:12:17.568Z,3.30
2023-01-23T00:12:29.541Z,3.34
2023-01-23T00:12:43.155Z,3.36
2023-01-23T00:12:55.182Z,3.37
2023-01-23T00:13:07.317Z,3.38
2023-01-23T00:13:20.699Z,3.38
2023-01-23T00:13:33.447Z,3.39
2023-01-23T00:13:45.775Z,3.35
2023-01-23T00:13:59.046Z,3.32
2023-01-23T00:14:11.236Z,3.20
2023-01-23T00:14:23.200Z,3.14
2023-01-23T00:14:35.147Z,3.15
2023-01-23T00:14:47.166Z,3.19
2023-01-23T00:14:59.140Z,3.05
2023-01-23T00:15:13.283Z,3.08
2023-01-23T00:15:25.307Z,3.08
2023-01-23T00:15:39.477Z,3.10
2023-01-23T00:15:51.658Z,3.12
2023-01-23T00:16:15.337Z,3.13
2023-01-23T00:16:31.550Z,3.15
2023-01-23T00:16:43.450Z,3.11
2023-01-23T00:16:55.381Z,3.10
2023-01-23T00:17:07.282Z,3.15
2023-01-23T00:17:19.210Z,3.14
2023-01-23T00:17:31.156Z,3.13
2023-01-23T00:17:45.535Z,3.13
2023-01-23T00:18:00.413Z,3.13
2023-01-23T00:18:12.380Z,3.14
2023-01-23T00:18:24.305Z,3.16
2023-01-23T00:18:36.249Z,3.12
2023-01-23T00:18:49.116Z,3.15
2023-01-23T00:19:01.151Z,3.19
2023-01-23T00:19:13.123Z,3.17
2023-01-23T00:19:25.205Z,3.21
2023-01-23T00:19:37.143Z,3.16
2023-01-23T00:19:52.431Z,2.94
2023-01-23T00:20:04.837Z,2.93
2023-01-23T00:20:16.969Z,2.97
2023-01-23T00:20:29.041Z,2.84
2023-01-23T00:20:41.777Z,2.87
2023-01-23T00:20:53.807Z,2.93
2023-01-23T00:21:08.847Z,2.84
2023-01-23T00:21:23.243Z,2.82
2023-01-23T00:21:35.172Z,2.80
2023-01-23T00:21:47.134Z,2.81
2023-01-23T00:22:00.995Z,2.83
2023-01-23T00:22:15.199Z,2.89
2023-01-23T00:22:27.187Z,2.74
2023-01-23T00:22:39.405Z,2.72
2023-01-23T00:22:51.349Z,2.78
2023-01-23T00:23:03.449Z,2.84
2023-01-23T00:23:15.343Z,2.85
2023-01-23T00:23:27.280Z,2.84
2023-01-23T00:23:43.113Z,2.92
2023-01-23T00:23:56.800Z,2.94
2023-01-23T00:24:11.570Z,2.99
2023-01-23T00:24:23.523Z,3.00
2023-01-23T00:24:35.492Z,3.00
2023-01-23T00:24:47.712Z,2.97
2023-01-23T00:24:59.631Z,2.97
2023-01-23T00:25:11.558Z,2.99
2023-01-23T00:25:23.556Z,2.98
2023-01-23T00:25:36.445Z,2.97
2023-01-23T00:25:48.410Z,2.97
2023-01-23T00:26:08.123Z,2.98
2023-01-23T00:26:28.857Z,3.02
2023-01-23T00:26:40.845Z,3.03
2023-01-23T00:26:52.850Z,3.03
2023-01-23T00:27:04.765Z,3.04
2023-01-23T00:27:16.643Z,3.05
2023-01-23T00:27:28.590Z,3.05
2023-01-23T00:27:40.502Z,3.09
2023-01-23T00:27:52.544Z,3.09
2023-01-23T00:28:05.103Z,3.09
2023-01-23T00:28:17.062Z,3.05
2023-01-23T00:28:29.017Z,3.07
2023-01-23T00:28:41.705Z,3.07
2023-01-23T00:28:54.252Z,3.11
2023-01-23T00:29:06.525Z,3.09
2023-01-23T00:29:21.669Z,3.12
2023-01-23T00:29:33.898Z,3.07
2023-01-23T00:29:45.901Z,3.08
2023-01-23T00:29:58.010Z,3.09
2023-01-23T00:30:10.945Z,3.11
2023-01-23T00:30:22.991Z,3.08
2023-01-23T00:30:35.201Z,3.11
2023-01-23T00:30:47.415Z,3.12
2023-01-23T00:31:07.364Z,3.12
2023-01-23T00:31:24.676Z,3.10
2023-01-23T00:31:39.132Z,3.14
2023-01-23T00:31:51.336Z,3.12
2023-01-23T00:32:03.644Z,3.04
2023-01-23T00:32:15.768Z,2.97
2023-01-23T00:32:28.117Z,2.97
2023-01-23T00:32:40.212Z,3.00
2023-01-23T00:32:52.305Z,3.02
2023-01-23T00:33:04.417Z,3.03
2023-01-23T00:33:16.494Z,3.04
2023-01-23T00:33:28.591Z,3.04
2023-01-23T00:33:41.347Z,3.04
2023-01-23T00:34:02.426Z,3.03
2023-01-23T00:34:15.302Z,3.05
2023-01-23T00:34:27.284Z,3.05
2023-01-23T00:34:39.265Z,2.97
2023-01-23T00:34:51.274Z,2.96
2023-01-23T00:35:03.365Z,2.97
2023-01-23T00:35:15.407Z,2.94
2023-01-23T00:35:27.378Z,2.91
2023-01-23T00:35:41.936Z,2.84
2023-01-23T00:35:57.975Z,2.80
2023-01-23T00:36:10.884Z,2.82
2023-01-23T00:36:23.751Z,2.86
2023-01-23T00:36:38.455Z,2.89
2023-01-23T00:36:50.376Z,2.92
2023-01-23T00:37:02.335Z,2.89
2023-01-23T00:37:14.784Z,2.87
2023-01-23T00:37:26.716Z,2.84
2023-01-23T00:37:38.643Z,2.87
2023-01-23T00:37:50.540Z,2.87
2023-01-23T00:38:02.503Z,2.84
2023-01-23T00:38:14.437Z,2.75
2023-01-23T00:38:26.711Z,2.75
2023-01-23T00:38:38.762Z,2.65
2023-01-23T00:38:50.851Z,2.61
2023-01-23T00:39:06.586Z,2.57
2023-01-23T00:39:20.720Z,2.54
2023-01-23T00:39:32.657Z,2.56
2023-01-23T00:39:45.914Z,2.59
2023-01-23T00:39:57.932Z,2.59
2023-01-23T00:40:10.485Z,2.55
2023-01-23T00:40:22.965Z,2.54
2023-01-23T00:40:34.958Z,2.50
2023-01-23T00:40:46.883Z,2.49
2023-01-23T00:40:58.967Z,2.45
2023-01-23T00:41:11.121Z,2.43
2023-01-23T00:41:23.552Z,2.47
2023-01-23T00:41:35.847Z,2.47
2023-01-23T00:41:49.381Z,2.46
2023-01-23T00:42:01.335Z,2.44
2023-01-23T00:42:13.291Z,2.38
2023-01-23T00:42:25.288Z,2.37
2023-01-23T00:42:37.288Z,2.32
2023-01-23T00:42:49.431Z,2.27
2023-01-23T00:43:01.393Z,2.28
2023-01-23T00:43:13.343Z,2.15
2023-01-23T00:43:25.374Z,2.09
2023-01-23T00:43:37.359Z,2.08
2023-01-23T00:43:51.775Z,2.10
2023-01-23T00:44:03.875Z,2.12
2023-01-23T00:44:16.807Z,2.08
2023-01-23T00:44:28.911Z,2.03
2023-01-23T00:44:40.827Z,2.00
2023-01-23T00:44:52.946Z,1.92
2023-01-23T00:45:06.122Z,1.99
2023-01-23T00:45:18.332Z,2.04
2023-01-23T00:45:30.288Z,2.07
2023-01-23T00:45:42.236Z,2.12
2023-01-23T00:45:54.296Z,2.16
2023-01-23T00:46:06.315Z,2.16
2023-01-23T00:46:20.171Z,2.12
2023-01-23T00:46:32.296Z,2.15
2023-01-23T00:46:44.687Z,2.20
2023-01-23T00:47:00.139Z,2.21
2023-01-23T00:47:12.657Z,2.16
2023-01-23T00:47:27.379Z,2.17
2023-01-23T00:47:39.333Z,2.21
2023-01-23T00:47:51.277Z,2.21
2023-01-23T00:48:03.513Z,2.20
2023-01-23T00:48:15.692Z,2.16
2023-01-23T00:48:28.078Z,2.18
2023-01-23T00:48:40.124Z,2.18
2023-01-23T00:48:52.438Z,2.19
2023-01-23T00:49:04.829Z,2.23
2023-01-23T00:49:17.820Z,2.24
2023-01-23T00:49:30.457Z,2.15
2023-01-23T00:49:42.455Z,2.16
2023-01-23T00:49:55.144Z,2.00
2023-01-23T00:50:07.363Z,1.97
2023-01-23T00:50:19.486Z,2.00
2023-01-23T00:50:31.641Z,2.04
2023-01-23T00:50:43.619Z,1.99
2023-01-23T00:50:55.706Z,1.82
2023-01-23T00:51:07.799Z,1.77
2023-01-23T00:51:19.836Z,1.82
2023-01-23T00:51:31.981Z,1.89
2023-01-23T00:51:45.191Z,1.89
2023-01-23T00:51:57.206Z,1.90
2023-01-23T00:52:09.116Z,1.91
2023-01-23T00:52:21.038Z,1.91
2023-01-23T00:52:33.044Z,1.92
2023-01-23T00:52:44.935Z,1.81
2023-01-23T00:52:56.821Z,1.84
2023-01-23T00:53:11.416Z,1.88
2023-01-23T00:53:23.412Z,1.87
2023-01-23T00:53:35.356Z,1.89
2023-01-23T00:53:47.427Z,1.90
2023-01-23T00:53:59.543Z,1.88
2023-01-23T00:54:11.821Z,1.90
2023-01-23T00:54:25.897Z,1.89
2023-01-23T00:54:39.255Z,1.86
2023-01-23T00:54:51.212Z,1.88
2023-01-23T00:55:04.923Z,1.79
2023-01-23T00:55:16.854Z,1.75
2023-01-23T00:55:31.842Z,1.78
2023-01-23T00:55:51.064Z,1.84
2023-01-23T00:56:21.634Z,1.88
2023-01-23T00:56:40.874Z,1.98
2023-01-23T00:57:04.901Z,1.96
2023-01-23T00:57:35.345Z,1.98
2023-01-23T00:57:47.276Z,1.94
2023-01-23T00:57:59.624Z,1.86
2023-01-23T00:58:11.772Z,1.86
2023-01-23T00:58:23.771Z,1.83
2023-01-23T00:58:35.910Z,1.83
2023-01-23T00:58:47.893Z,1.85
2023-01-23T00:58:59.846Z,1.83
2023-01-23T00:59:11.814Z,1.88
2023-01-23T00:59:24.360Z,1.89
2023-01-23T00:59:36.485Z,1.87
2023-01-23T00:59:48.425Z,1.89
2023-01-23T01:00:00.515Z,1.91
2023-01-23T01:00:12.775Z,1.80
2023-01-23T01:00:24.885Z,1.74
2023-01-23T01:00:38.200Z,1.80
2023-01-23T01:00:50.160Z,1.84
2023-01-23T01:01:02.197Z,1.89
2023-01-23T01:01:15.908Z,1.91
2023-01-23T01:01:29.025Z,1.96
2023-01-23T01:01:41.109Z,1.97
2023-01-23T01:01:53.248Z,2.02
2023-01-23T01:02:05.226Z,2.06
2023-01-23T01:02:17.538Z,2.06
2023-01-23T01:02:29.728Z,2.10
2023-01-23T01:02:41.795Z,2.14
2023-01-23T01:02:54.032Z,2.16
2023-01-23T01:03:06.637Z,2.22
2023-01-23T01:03:20.432Z,2.25
2023-01-23T01:03:32.401Z,2.30
2023-01-23T01:03:45.552Z,2.32
2023-01-23T01:03:58.668Z,2.36
2023-01-23T01:04:10.636Z,2.40
2023-01-23T01:04:22.666Z,2.45
2023-01-23T01:04:34.578Z,2.49
2023-01-23T01:04:46.515Z,2.52
2023-01-23T01:04:58.461Z,2.56
2023-01-23T01:05:10.421Z,2.59
2023-01-23T01:05:22.474Z,2.59
2023-01-23T01:05:34.929Z,2.60
2023-01-23T01:05:47.420Z,2.63
2023-01-23T01:05:59.374Z,2.47
2023-01-23T01:06:12.458Z,2.43
2023-01-23T01:06:24.447Z,2.44
2023-01-23T01:06:36.585Z,2.43
2023-01-23T01:06:48.547Z,2.42
2023-01-23T01:07:00.510Z,2.43
2023-01-23T01:07:12.468Z,2.42
2023-01-23T01:07:24.579Z,2.36
2023-01-23T01:07:36.552Z,2.33
2023-01-23T01:07:48.685Z,2.30
2023-01-23T01:08:00.656Z,2.24
2023-01-23T01:08:12.769Z,2.27
2023-01-23T01:08:24.733Z,2.21
2023-01-23T01:08:36.844Z,2.23
2023-01-23T01:08:49.516Z,2.25
2023-01-23T01:09:01.773Z,2.24
2023-01-23T01:09:13.727Z,2.24
2023-01-23T01:09:25.754Z,2.22
2023-01-23T01:09:37.731Z,2.17
2023-01-23T01:09:49.755Z,2.16
2023-01-23T01:10:02.132Z,2.17
2023-01-23T01:10:15.050Z,2.22
2023-01-23T01:10:29.389Z,2.11
2023-01-23T01:10:42.050Z,2.13
2023-01-23T01:10:54.057Z,2.13
2023-01-23T01:11:06.444Z,2.15
2023-01-23T01:11:18.343Z,2.14
2023-01-23T01:11:30.843Z,2.13
2023-01-23T01:11:42.845Z,2.13
2023-01-23T01:11:54.844Z,2.10
2023-01-23T01:12:07.038Z,2.12
2023-01-23T01:12:19.368Z,2.11
2023-01-23T01:12:31.336Z,2.18
2023-01-23T01:12:43.244Z,2.21
2023-01-23T01:12:56.890Z,2.22
2023-01-23T01:13:10.482Z,2.18
2023-01-23T01:13:23.777Z,2.17
2023-01-23T01:13:38.429Z,2.19
2023-01-23T01:13:53.447Z,2.19
2023-01-23T01:14:05.475Z,2.23
2023-01-23T01:14:17.462Z,2.24
2023-01-23T01:14:29.489Z,2.25
2023-01-23T01:14:41.490Z,2.28
2023-01-23T01:14:53.523Z,2.32
2023-01-23T01:15:06.659Z,2.31
2023-01-23T01:15:18.692Z,2.32
2023-01-23T01:15:30.647Z,2.32
2023-01-23T01:15:42.571Z,2.32
2023-01-23T01:15:54.878Z,2.31
2023-01-23T01:16:07.308Z,2.33
2023-01-23T01:16:19.873Z,2.38
2023-01-23T01:16:32.014Z,2.39
2023-01-23T01:16:46.573Z,2.40
2023-01-23T01:16:58.697Z,2.45
2023-01-23T01:17:10.733Z,2.46
2023-01-23T01:17:22.849Z,2.49
2023-01-23T01:17:41.124Z,2.52
2023-01-23T01:17:56.105Z,2.56
2023-01-23T01:18:08.063Z,2.56
2023-01-23T01:18:21.784Z,2.61
2023-01-23T01:18:34.242Z,2.62
2023-01-23T01:18:46.149Z,2.59
2023-01-23T01:18:58.097Z,2.54
2023-01-23T01:19:10.194Z,2.52
2023-01-23T01:19:22.173Z,2.54
2023-01-23T01:19:34.082Z,2.50
2023-01-23T01:19:46.090Z,2.44
2023-01-23T01:19:58.118Z,2.45
2023-01-23T01:20:11.252Z,2.47
2023-01-23T01:20:26.174Z,2.46
2023-01-23T01:20:41.617Z,2.46
2023-01-23T01:20:54.592Z,2.46
2023-01-23T01:21:11.926Z,2.44
2023-01-23T01:21:23.984Z,2.45
2023-01-23T01:21:35.893Z,2.39
2023-01-23T01:21:47.852Z,2.40
2023-01-23T01:21:59.785Z,2.36
2023-01-23T01:22:11.744Z,2.36
2023-01-23T01:22:23.725Z,2.27
2023-01-23T01:22:35.609Z,2.26
2023-01-23T01:22:47.522Z,2.22
2023-01-23T01:23:00.526Z,2.22
2023-01-23T01:23:15.548Z,2.18
2023-01-23T01:23:27.721Z,2.21
2023-01-23T01:23:40.620Z,2.22
2023-01-23T01:23:52.581Z,2.21
2023-01-23T01:24:05.232Z,2.15
2023-01-23T01:24:17.235Z,2.11
2023-01-23T01:24:29.176Z,2.15
2023-01-23T01:24:42.258Z,2.13
2023-01-23T01:24:55.079Z,2.13
2023-01-23T01:25:07.605Z,2.16
2023-01-23T01:25:19.625Z,2.20
2023-01-23T01:25:31.528Z,2.22
2023-01-23T01:25:43.464Z,2.25
2023-01-23T01:25:59.206Z,2.28
2023-01-23T01:26:11.801Z,2.31
2023-01-23T01:26:26.163Z,2.31
2023-01-23T01:26:38.175Z,2.32
2023-01-23T01:26:50.088Z,2.32
2023-01-23T01:27:02.068Z,2.35
2023-01-23T01:27:14.104Z,2.36
2023-01-23T01:27:26.036Z,2.37
2023-01-23T01:27:38.130Z,2.36
2023-01-23T01:27:50.436Z,2.39
2023-01-23T01:28:02.860Z,2.43
2023-01-23T01:28:15.041Z,2.46
2023-01-23T01:28:30.259Z,2.49
2023-01-23T01:28:42.337Z,2.53
2023-01-23T01:28:54.272Z,2.55
2023-01-23T01:29:06.220Z,2.56
2023-01-23T01:29:18.225Z,2.58
2023-01-23T01:29:30.131Z,2.59
2023-01-23T01:29:42.083Z,2.62
2023-01-23T01:29:53.967Z,2.65
2023-01-23T01:30:06.449Z,2.66
2023-01-23T01:30:19.011Z,2.67
2023-01-23T01:30:31.206Z,2.70
2023-01-23T01:30:43.399Z,2.72
2023-01-23T01:30:55.499Z,2.73
2023-01-23T01:31:13.856Z,2.72
2023-01-23T01:31:25.985Z,2.63
2023-01-23T01:31:37.972Z,2.58
2023-01-23T01:31:50.054Z,2.56
2023-01-23T01:32:02.220Z,2.50
2023-01-23T01:32:14.168Z,2.48
2023-01-23T01:32:26.161Z,2.46
2023-01-23T01:32:41.723Z,2.47
2023-01-23T01:32:54.826Z,2.50
2023-01-23T01:33:07.200Z,2.43
2023-01-23T01:33:19.263Z,2.43
2023-01-23T01:33:31.276Z,2.40
2023-01-23T01:33:43.933Z,2.36
2023-01-23T01:33:55.902Z,2.29
2023-01-23T01:34:07.878Z,2.30
2023-01-23T01:34:20.671Z,2.28
2023-01-23T01:34:33.522Z,2.21
2023-01-23T01:34:45.473Z,2.21
2023-01-23T01:34:57.387Z,2.19
2023-01-23T01:35:10.799Z,2.22
2023-01-23T01:35:23.763Z,2.22
2023-01-23T01:35:35.813Z,2.22
2023-01-23T01:35:47.764Z,2.28
2023-01-23T01:36:00.141Z,2.29
2023-01-23T01:36:17.478Z,2.32
2023-01-23T01:36:29.522Z,2.38
2023-01-23T01:36:41.474Z,2.40
2023-01-23T01:36:53.571Z,2.44
2023-01-23T01:37:05.523Z,2.45
2023-01-23T01:37:17.470Z,2.49
2023-01-23T01:37:29.355Z,2.48
2023-01-23T01:37:42.184Z,2.51
2023-01-23T01:37:54.151Z,2.55
2023-01-23T01:38:06.176Z,2.57
2023-01-23T01:38:18.127Z,2.60
2023-01-23T01:38:30.157Z,2.63
2023-01-23T01:38:42.752Z,2.66
2023-01-23T01:38:54.760Z,2.65
2023-01-23T01:39:06.713Z,2.69
2023-01-23T01:39:18.704Z,2.72
2023-01-23T01:39:31.884Z,2.74
2023-01-23T01:39:43.884Z,2.76
2023-01-23T01:39:55.773Z,2.77
2023-01-23T01:40:12.032Z,2.80
2023-01-23T01:40:32.056Z,2.85
2023-01-23T01:40:43.964Z,2.87
2023-01-23T01:40:57.271Z,2.87
2023-01-23T01:41:10.640Z,2.91
2023-01-23T01:41:22.623Z,2.91
2023-01-23T01:41:35.685Z,2.92
2023-01-23T01:41:48.114Z,2.94
2023-01-23T01:42:00.043Z,2.93
2023-01-23T01:42:12.087Z,2.86
2023-01-23T01:42:24.000Z,2.84
2023-01-23T01:42:57.695Z,2.89
2023-01-23T01:43:18.881Z,2.92
2023-01-23T01:43:31.787Z,2.94
2023-01-23T01:43:44.810Z,2.93
2023-01-23T01:43:57.135Z,2.91
2023-01-23T01:44:17.524Z,2.89
2023-01-23T01:44:53.642Z,2.95
2023-01-23T01:45:06.183Z,2.97
2023-01-23T01:45:58.563Z,2.88
2023-01-23T01:46:33.077Z,3.01
2023-01-23T01:46:45.983Z,3.02
2023-01-23T01:46:58.000Z,3.04
2023-01-23T01:47:15.817Z,3.05
2023-01-23T01:47:28.356Z,3.07
2023-01-23T01:47:40.257Z,3.05
2023-01-23T01:47:54.914Z,3.06
2023-01-23T01:48:07.009Z,3.04
2023-01-23T01:48:21.548Z,2.99
2023-01-23T01:48:42.244Z,2.95
2023-01-23T01:49:08.236Z,3.01
2023-01-23T01:49:26.201Z,3.03
2023-01-23T01:49:38.216Z,3.05
2023-01-23T01:49:54.862Z,3.09
2023-01-23T01:50:07.181Z,3.10
2023-01-23T01:50:19.709Z,3.12
2023-01-23T01:50:31.955Z,3.14
2023-01-23T01:50:44.085Z,3.14
2023-01-23T01:50:58.031Z,3.16
2023-01-23T01:51:18.429Z,3.18
2023-01-23T01:51:50.238Z,3.20
2023-01-23T01:52:08.773Z,3.24
2023-01-23T01:52:23.202Z,3.26
2023-01-23T01:52:35.218Z,3.27
2023-01-23T01:52:47.280Z,3.27
2023-01-23T01:52:59.219Z,3.28
2023-01-23T01:53:11.714Z,3.29
2023-01-23T01:53:27.125Z,3.29
2023-01-23T01:53:40.282Z,3.31
2023-01-23T01:54:05.404Z,3.33
2023-01-23T01:54:24.867Z,3.33
2023-01-23T01:54:42.764Z,3.35
2023-01-23T01:55:05.984Z,3.36
2023-01-23T01:55:18.083Z,3.33
2023-01-23T01:55:30.446Z,3.32
2023-01-23T01:55:42.711Z,3.31
2023-01-23T01:55:55.521Z,3.27
2023-01-23T01:56:11.793Z,3.28
2023-01-23T01:56:25.554Z,3.23
2023-01-23T01:56:44.537Z,3.23
2023-01-23T01:57:08.276Z,3.24
2023-01-23T01:57:26.913Z,3.25
2023-01-23T01:57:43.654Z,3.29
2023-01-23T01:57:56.016Z,3.28
2023-01-23T01:58:08.972Z,3.27
2023-01-23T01:58:21.565Z,3.28
2023-01-23T01:58:34.067Z,3.30
2023-01-23T01:58:48.708Z,3.32
2023-01-23T01:59:01.784Z,3.29
2023-01-23T01:59:14.556Z,3.30
2023-01-23T01:59:29.793Z,3.27
2023-01-23T02:00:02.371Z,3.23
2023-01-23T02:00:17.206Z,3.23
2023-01-23T02:00:29.339Z,3.26
2023-01-23T02:00:41.865Z,3.28
2023-01-23T02:00:54.346Z,3.29
2023-01-23T02:01:06.475Z,3.30
2023-01-23T02:01:18.983Z,3.31
2023-01-23T02:01:31.499Z,3.32
2023-01-23T02:01:47.440Z,3.35
2023-01-23T02:02:09.256Z,3.34
2023-01-23T02:02:28.614Z,3.36
2023-01-23T02:02:45.075Z,3.36
2023-01-23T02:03:02.729Z,3.34
2023-01-23T02:03:16.904Z,3.35
2023-01-23T02:03:29.624Z,3.38
2023-01-23T02:03:43.835Z,3.40
2023-01-23T02:03:56.959Z,3.43
2023-01-23T02:04:09.834Z,3.40
2023-01-23T02:04:21.995Z,3.36
2023-01-23T02:04:36.788Z,3.33
2023-01-23T02:04:52.506Z,3.31
2023-01-23T02:05:09.833Z,3.34
2023-01-23T02:05:56.939Z,3.31
2023-01-23T02:06:09.139Z,3.31
2023-01-23T02:06:21.427Z,3.30
2023-01-23T02:06:36.289Z,3.30
2023-01-23T02:06:50.941Z,3.31
2023-01-23T02:07:07.330Z,3.32
2023-01-23T02:07:28.018Z,3.22
2023-01-23T02:07:58.551Z,3.23
2023-01-23T02:08:40.424Z,3.15
2023-01-23T02:09:01.930Z,3.15
2023-01-23T02:09:26.007Z,3.14
2023-01-23T02:09:38.382Z,3.13
2023-01-23T02:09:50.498Z,3.16
2023-01-23T02:10:05.404Z,3.09
2023-01-23T02:10:18.042Z,3.13
2023-01-23T02:10:32.405Z,3.15
2023-01-23T02:10:44.400Z,3.19
2023-01-23T02:10:56.704Z,3.20
2023-01-23T02:11:08.879Z,3.20
2023-01-23T02:11:21.094Z,3.22
2023-01-23T02:11:33.321Z,3.22
2023-01-23T02:11:45.368Z,3.19
2023-01-23T02:11:57.376Z,3.17
2023-01-23T02:12:09.363Z,3.03
2023-01-23T02:12:21.364Z,3.06
2023-01-23T02:12:35.207Z,2.99
2023-01-23T02:12:49.652Z,2.99
2023-01-23T02:13:21.808Z,3.08
2023-01-23T02:13:37.070Z,3.06
2023-01-23T02:13:49.169Z,3.03
2023-01-23T02:14:01.087Z,2.98
2023-01-23T02:14:14.417Z,2.94
2023-01-23T02:14:26.718Z,2.83
2023-01-23T02:14:38.759Z,2.76
2023-01-23T02:14:50.687Z,2.84
2023-01-23T02:15:05.554Z,2.90
2023-01-23T02:15:20.468Z,2.94
2023-01-23T02:15:32.436Z,2.98
2023-01-23T02:15:45.435Z,3.00
2023-01-23T02:15:59.373Z,3.03
2023-01-23T02:16:23.844Z,3.05
2023-01-23T02:16:40.912Z,3.03
2023-01-23T02:16:56.020Z,3.05
2023-01-23T02:17:07.977Z,3.06
2023-01-23T02:17:19.929Z,3.05
2023-01-23T02:17:33.589Z,3.04
2023-01-23T02:17:51.355Z,3.06
2023-01-23T02:18:03.410Z,3.09
2023-01-23T02:18:15.723Z,3.11
2023-01-23T02:18:30.554Z,3.12
2023-01-23T02:18:47.541Z,3.12
2023-01-23T02:19:07.381Z,3.03
2023-01-23T02:19:51.738Z,3.02
2023-01-23T02:20:15.461Z,2.96
2023-01-23T02:20:28.670Z,3.00
2023-01-23T02:20:40.751Z,3.00
2023-01-23T02:20:54.708Z,2.88
2023-01-23T02:21:08.536Z,2.93
2023-01-23T02:21:25.275Z,2.97
2023-01-23T02:21:39.264Z,3.00
2023-01-23T02:21:59.566Z,3.04
2023-01-23T02:22:35.419Z,3.09
2023-01-23T02:23:06.752Z,3.17
2023-01-23T02:23:30.230Z,3.14
2023-01-23T02:24:03.284Z,3.10
2023-01-23T02:24:48.681Z,3.15
2023-01-23T02:25:11.997Z,3.19
2023-01-23T02:25:44.209Z,3.24
2023-01-23T02:26:01.740Z,3.26
2023-01-23T02:26:19.964Z,3.26
2023-01-23T02:26:37.425Z,3.20
2023-01-23T02:26:49.385Z,3.18
2023-01-23T02:27:03.097Z,3.19
2023-01-23T02:27:15.197Z,3.17
2023-01-23T02:27:27.178Z,3.17
2023-01-23T02:27:39.112Z,3.10
2023-01-23T02:27:51.063Z,3.09
2023-01-23T02:28:03.336Z,3.05
2023-01-23T02:28:16.383Z,3.10
2023-01-23T02:28:41.014Z,3.11
2023-01-23T02:28:53.641Z,3.12
2023-01-23T02:29:06.632Z,3.15
2023-01-23T02:29:20.247Z,3.17
2023-01-23T02:29:44.855Z,3.18
2023-01-23T02:29:56.816Z,3.19
2023-01-23T02:30:09.872Z,3.21
2023-01-23T02:30:22.168Z,3.21
2023-01-23T02:30:34.307Z,3.23
2023-01-23T02:30:50.585Z,3.26
2023-01-23T02:31:02.618Z,3.29
2023-01-23T02:31:15.169Z,3.28
2023-01-23T02:31:27.278Z,3.31
2023-01-23T02:31:42.723Z,3.32
2023-01-23T02:31:56.213Z,3.32
2023-01-23T02:32:08.821Z,3.35
2023-01-23T02:32:24.307Z,3.34
2023-01-23T02:32:36.310Z,3.34
2023-01-23T02:32:48.240Z,3.34
2023-01-23T02:33:12.252Z,3.34
2023-01-23T02:33:24.111Z,3.33
2023-01-23T02:33:35.975Z,3.33
2023-01-23T02:33:52.720Z,3.36
2023-01-23T02:34:05.763Z,3.32
2023-01-23T02:34:17.763Z,3.34
2023-01-23T02:34:29.715Z,3.35
2023-01-23T02:34:42.613Z,3.36
2023-01-23T02:34:57.882Z,3.36
2023-01-23T02:35:23.784Z,3.37
2023-01-23T02:35:35.835Z,3.38
2023-01-23T02:35:48.005Z,3.38
2023-01-23T02:36:00.988Z,3.37
2023-01-23T02:36:13.313Z,3.38
2023-01-23T02:36:29.886Z,3.36
2023-01-23T02:36:47.397Z,3.38
2023-01-23T02:36:59.754Z,3.39
2023-01-23T02:37:12.425Z,3.40
2023-01-23T02:37:29.807Z,3.40
2023-01-23T02:37:45.691Z,3.44
2023-01-23T02:38:03.019Z,3.45
2023-01-23T02:38:15.046Z,3.40
2023-01-23T02:38:32.504Z,3.40
2023-01-23T02:38:56.975Z,3.40
2023-01-23T02:39:14.861Z,3.40
2023-01-23T02:39:27.566Z,3.41
2023-01-23T02:39:39.627Z,3.42
2023-01-23T02:39:51.577Z,3.43
2023-01-23T02:40:04.125Z,3.44
2023-01-23T02:40:16.222Z,3.43
2023-01-23T02:40:37.537Z,3.25
2023-01-23T02:40:52.032Z,3.30
2023-01-23T02:41:07.715Z,3.30
2023-01-23T02:41:25.807Z,3.32
2023-01-23T02:41:43.106Z,3.34
2023-01-23T02:41:56.197Z,3.37
2023-01-23T02:42:08.396Z,3.38
2023-01-23T02:42:21.715Z,3.39
2023-01-23T02:42:34.340Z,3.40
2023-01-23T02:42:47.240Z,3.43
2023-01-23T02:43:00.114Z,3.43
2023-01-23T02:43:19.809Z,3.45
2023-01-23T02:43:35.985Z,3.47
2023-01-23T02:43:49.165Z,3.48
2023-01-23T02:44:08.190Z,3.48
2023-01-23T02:44:28.684Z,3.46
2023-01-23T02:44:40.732Z,3.20
2023-01-23T02:44:55.804Z,3.23
2023-01-23T02:45:08.210Z,3.25
2023-01-23T02:45:20.156Z,3.27
2023-01-23T02:45:32.912Z,3.29
2023-01-23T02:45:45.569Z,3.32
2023-01-23T02:45:57.617Z,3.33
2023-01-23T02:46:11.538Z,3.35
2023-01-23T02:46:24.481Z,3.36
2023-01-23T02:46:36.479Z,3.37
2023-01-23T02:46:48.464Z,3.40
2023-01-23T02:47:07.891Z,3.42
2023-01-23T02:47:19.859Z,3.42
2023-01-23T02:47:33.651Z,3.43
2023-01-23T02:47:45.556Z,3.45
2023-01-23T02:47:57.561Z,3.40
2023-01-23T02:48:09.611Z,3.23
2023-01-23T02:48:23.162Z,3.16
2023-01-23T02:48:36.450Z,3.23
2023-01-23T02:48:48.853Z,3.23
2023-01-23T02:49:00.791Z,3.15
2023-01-23T02:49:13.012Z,3.12
2023-01-23T02:49:25.097Z,3.13
2023-01-23T02:49:37.429Z,3.17
2023-01-23T02:49:49.398Z,3.17
2023-01-23T02:50:01.350Z,3.23
2023-01-23T02:50:13.301Z,3.24
2023-01-23T02:50:25.202Z,3.27
2023-01-23T02:50:37.211Z,3.29
2023-01-23T02:50:49.275Z,3.31
2023-01-23T02:51:01.349Z,3.26
2023-01-23T02:51:13.920Z,3.15
2023-01-23T02:51:26.140Z,3.06
2023-01-23T02:51:38.325Z,3.10
2023-01-23T02:51:52.385Z,3.09
2023-01-23T02:52:05.973Z,3.08
2023-01-23T02:52:17.922Z,3.09
2023-01-23T02:52:31.878Z,3.06
2023-01-23T02:52:43.771Z,3.12
2023-01-23T02:52:57.890Z,3.14
2023-01-23T02:53:09.831Z,3.18
2023-01-23T02:53:21.897Z,3.20
2023-01-23T02:53:33.872Z,3.23
2023-01-23T02:53:45.838Z,3.25
2023-01-23T02:53:58.622Z,3.25
2023-01-23T02:54:10.579Z,3.30
2023-01-23T02:54:23.589Z,3.33
2023-01-23T02:54:35.737Z,3.32
2023-01-23T02:54:47.696Z,3.17
2023-01-23T02:54:59.773Z,3.17
2023-01-23T02:55:11.655Z,3.01
2023-01-23T02:55:26.331Z,2.95
2023-01-23T02:55:42.316Z,2.94
2023-01-23T02:55:54.388Z,2.97
2023-01-23T02:56:06.619Z,2.96
2023-01-23T02:56:19.771Z,2.91
2023-01-23T02:56:31.757Z,2.95
2023-01-23T02:56:43.751Z,2.95
2023-01-23T02:56:57.164Z,3.00
2023-01-23T02:57:09.500Z,3.01
2023-01-23T02:57:21.552Z,3.05
2023-01-23T02:57:33.487Z,3.07
2023-01-23T02:57:45.426Z,3.11
2023-01-23T02:58:20.027Z,3.13
2023-01-23T02:58:50.401Z,3.19
2023-01-23T02:59:20.812Z,3.15
2023-01-23T02:59:51.335Z,3.08
2023-01-23T03:00:16.281Z,2.96
2023-01-23T03:00:28.221Z,2.94
2023-01-23T03:00:43.215Z,2.95
2023-01-23T03:00:55.176Z,2.91
2023-01-23T03:01:07.189Z,2.92
2023-01-23T03:01:19.328Z,2.93
2023-01-23T03:01:33.634Z,2.82
2023-01-23T03:01:45.648Z,2.86
2023-01-23T03:01:58.241Z,2.93
2023-01-23T03:02:10.620Z,2.95
2023-01-23T03:02:22.791Z,2.99
2023-01-23T03:02:34.735Z,3.03
2023-01-23T03:02:50.984Z,3.06
2023-01-23T03:03:04.214Z,3.01
2023-01-23T03:03:16.183Z,2.94
2023-01-23T03:03:28.971Z,2.99
2023-01-23T03:03:42.484Z,3.05
2023-01-23T03:03:58.054Z,3.08
2023-01-23T03:04:10.007Z,3.10
2023-01-23T03:04:22.063Z,3.12
2023-01-23T03:04:34.073Z,3.14
2023-01-23T03:04:46.011Z,3.12
2023-01-23T03:04:57.960Z,3.15
2023-01-23T03:05:10.517Z,3.10
2023-01-23T03:05:22.439Z,3.10
2023-01-23T03:05:34.326Z,3.14